TAF Text Data
IDs:
Format:
Raw Decoded Include METAR

Data at: 0004 UTC 19 Dec 2018

KPHF 182320Z 1900/1924 VRB03KT P6SM SKC
  FM191500 18005KT P6SM SKC